Terminal Aerodrome Forecast
Issued by NWS Dodge City, KS

Home | Current Version | Previous Version | Graphics & Text | Print | Product List | Glossary Off
Versions: 1 2 3 4 5 6 7 8 9 10 11 12 13 14 15 16 17 18 19 20 21 22 23 24 25 26 27 28 29 30 31 32 33 34 35 36 37 38 39 40 41 42 43 44 45 46

000
FTUS43 KDDC 240907 AAA
TAFDDC
TAF AMD
KDDC 240907Z 2409/2506 13008KT 3SM BR OVC020
     FM241000 17012KT 1 1/2SM BR OVC010
     FM241200 17012KT 3/4SM BR OVC004
     FM241500 17012KT P6SM BKN015
     FM241700 19015KT P6SM SCT035
     FM242000 19015KT P6SM VCTS SCT035CB
     FM250200 34007KT P6SM BKN250=

USA.gov is the U.S. government's official web portal to all federal, state and local government web resources and services.